sensor_id;sensor_type;location;lat;lon;timestamp;P1;durP1;ratioP1;P2;durP2;ratioP2
12288;SDS011;6207;49.308;7.336;2023-02-11T00:00:56;50.43;;;31.17;;
12288;SDS011;6207;49.308;7.336;2023-02-11T00:03:23;53.97;;;31.27;;
12288;SDS011;6207;49.308;7.336;2023-02-11T00:06:00;51.87;;;33.40;;
12288;SDS011;6207;49.308;7.336;2023-02-11T00:08:29;52.20;;;32.07;;
12288;SDS011;6207;49.308;7.336;2023-02-11T00:10:56;48.37;;;29.57;;
12288;SDS011;6207;49.308;7.336;2023-02-11T00:13:23;47.40;;;30.50;;
12288;SDS011;6207;49.308;7.336;2023-02-11T00:15:50;49.73;;;29.33;;
12288;SDS011;6207;49.308;7.336;2023-02-11T00:18:17;50.80;;;29.23;;
12288;SDS011;6207;49.308;7.336;2023-02-11T00:20:44;40.50;;;24.97;;
12288;SDS011;6207;49.308;7.336;2023-02-11T00:23:11;52.90;;;32.80;;
12288;SDS011;6207;49.308;7.336;2023-02-11T00:25:41;46.87;;;30.93;;
12288;SDS011;6207;49.308;7.336;2023-02-11T00:28:09;51.53;;;29.93;;
12288;SDS011;6207;49.308;7.336;2023-02-11T00:30:37;51.07;;;32.20;;
12288;SDS011;6207;49.308;7.336;2023-02-11T00:33:04;48.83;;;28.87;;
12288;SDS011;6207;49.308;7.336;2023-02-11T00:35:30;47.87;;;29.57;;
12288;SDS011;6207;49.308;7.336;2023-02-11T00:37:57;48.77;;;28.37;;
12288;SDS011;6207;49.308;7.336;2023-02-11T00:40:24;50.57;;;28.50;;
12288;SDS011;6207;49.308;7.336;2023-02-11T00:42:51;47.10;;;27.77;;
12288;SDS011;6207;49.308;7.336;2023-02-11T00:45:17;36.33;;;22.93;;
12288;SDS011;6207;49.308;7.336;2023-02-11T00:47:46;48.17;;;30.70;;
12288;SDS011;6207;49.308;7.336;2023-02-11T00:50:13;29.07;;;19.57;;
12288;SDS011;6207;49.308;7.336;2023-02-11T00:52:40;44.47;;;26.47;;
12288;SDS011;6207;49.308;7.336;2023-02-11T00:55:06;42.77;;;27.60;;
12288;SDS011;6207;49.308;7.336;2023-02-11T00:57:33;41.53;;;25.97;;
12288;SDS011;6207;49.308;7.336;2023-02-11T01:00:00;51.43;;;30.57;;
12288;SDS011;6207;49.308;7.336;2023-02-11T01:02:27;42.10;;;24.17;;
12288;SDS011;6207;49.308;7.336;2023-02-11T01:04:54;42.40;;;26.03;;
12288;SDS011;6207;49.308;7.336;2023-02-11T01:07:21;40.43;;;25.57;;
12288;SDS011;6207;49.308;7.336;2023-02-11T01:09:47;43.03;;;25.47;;
12288;SDS011;6207;49.308;7.336;2023-02-11T01:12:14;44.43;;;27.97;;
12288;SDS011;6207;49.308;7.336;2023-02-11T01:14:41;41.07;;;24.47;;
12288;SDS011;6207;49.308;7.336;2023-02-11T01:17:07;37.70;;;24.53;;
12288;SDS011;6207;49.308;7.336;2023-02-11T01:19:35;32.03;;;21.83;;
12288;SDS011;6207;49.308;7.336;2023-02-11T01:22:02;40.33;;;24.93;;
12288;SDS011;6207;49.308;7.336;2023-02-11T01:24:30;40.67;;;24.83;;
12288;SDS011;6207;49.308;7.336;2023-02-11T01:26:56;40.03;;;25.03;;
12288;SDS011;6207;49.308;7.336;2023-02-11T01:29:23;41.80;;;24.83;;
12288;SDS011;6207;49.308;7.336;2023-02-11T01:31:50;40.77;;;25.50;;
12288;SDS011;6207;49.308;7.336;2023-02-11T01:34:17;39.43;;;25.67;;
12288;SDS011;6207;49.308;7.336;2023-02-11T01:36:44;36.70;;;23.90;;
12288;SDS011;6207;49.308;7.336;2023-02-11T01:39:10;34.30;;;23.13;;
12288;SDS011;6207;49.308;7.336;2023-02-11T01:41:37;35.70;;;24.90;;
12288;SDS011;6207;49.308;7.336;2023-02-11T01:44:20;37.37;;;23.70;;
12288;SDS011;6207;49.308;7.336;2023-02-11T01:46:52;37.60;;;23.50;;
12288;SDS011;6207;49.308;7.336;2023-02-11T01:49:25;38.43;;;23.63;;
12288;SDS011;6207;49.308;7.336;2023-02-11T01:52:05;40.63;;;24.33;;
12288;SDS011;6207;49.308;7.336;2023-02-11T01:54:46;37.40;;;23.97;;
12288;SDS011;6207;49.308;7.336;2023-02-11T01:57:34;45.37;;;24.33;;
12288;SDS011;6207;49.308;7.336;2023-02-11T02:00:23;37.00;;;23.40;;
12288;SDS011;6207;49.308;7.336;2023-02-11T02:03:05;40.97;;;24.47;;
12288;SDS011;6207;49.308;7.336;2023-02-11T02:05:44;41.27;;;24.73;;
12288;SDS011;6207;49.308;7.336;2023-02-11T02:08:20;38.60;;;24.20;;
12288;SDS011;6207;49.308;7.336;2023-02-11T02:11:09;39.10;;;23.23;;
12288;SDS011;6207;49.308;7.336;2023-02-11T02:13:36;38.13;;;23.63;;
12288;SDS011;6207;49.308;7.336;2023-02-11T02:16:04;32.57;;;22.20;;
12288;SDS011;6207;49.308;7.336;2023-02-11T02:18:53;20.10;;;13.27;;
12288;SDS011;6207;49.308;7.336;2023-02-11T02:26:35;35.30;;;21.67;;
12288;SDS011;6207;49.308;7.336;2023-02-11T02:29:39;36.13;;;21.57;;
12288;SDS011;6207;49.308;7.336;2023-02-11T02:41:06;30.17;;;20.93;;
12288;SDS011;6207;49.308;7.336;2023-02-11T02:43:34;33.17;;;21.57;;
12288;SDS011;6207;49.308;7.336;2023-02-11T02:48:42;32.83;;;21.40;;
12288;SDS011;6207;49.308;7.336;2023-02-11T02:59:51;37.00;;;23.07;;
12288;SDS011;6207;49.308;7.336;2023-02-11T03:07:47;39.33;;;24.13;;
12288;SDS011;6207;49.308;7.336;2023-02-11T03:10:31;36.50;;;22.77;;
12288;SDS011;6207;49.308;7.336;2023-02-11T03:13:01;41.40;;;26.07;;
12288;SDS011;6207;49.308;7.336;2023-02-11T03:15:31;30.57;;;21.10;;
12288;SDS011;6207;49.308;7.336;2023-02-11T03:18:03;32.83;;;22.83;;
12288;SDS011;6207;49.308;7.336;2023-02-11T03:20:35;29.83;;;19.67;;
12288;SDS011;6207;49.308;7.336;2023-02-11T03:23:46;38.03;;;24.60;;
12288;SDS011;6207;49.308;7.336;2023-02-11T03:29:17;35.53;;;23.37;;
12288;SDS011;6207;49.308;7.336;2023-02-11T03:34:18;41.53;;;23.10;;
12288;SDS011;6207;49.308;7.336;2023-02-11T03:37:12;34.43;;;22.97;;
12288;SDS011;6207;49.308;7.336;2023-02-11T03:39:56;40.60;;;25.37;;
12288;SDS011;6207;49.308;7.336;2023-02-11T03:42:29;38.67;;;24.07;;
12288;SDS011;6207;49.308;7.336;2023-02-11T03:45:07;38.07;;;23.20;;
12288;SDS011;6207;49.308;7.336;2023-02-11T03:47:37;36.50;;;24.53;;
12288;SDS011;6207;49.308;7.336;2023-02-11T03:50:09;35.20;;;23.27;;
12288;SDS011;6207;49.308;7.336;2023-02-11T03:52:37;37.13;;;24.17;;
12288;SDS011;6207;49.308;7.336;2023-02-11T03:55:08;35.00;;;24.07;;
12288;SDS011;6207;49.308;7.336;2023-02-11T03:57:39;39.03;;;22.53;;
12288;SDS011;6207;49.308;7.336;2023-02-11T04:00:07;37.93;;;23.30;;
12288;SDS011;6207;49.308;7.336;2023-02-11T04:02:35;34.83;;;23.87;;
12288;SDS011;6207;49.308;7.336;2023-02-11T04:05:03;35.27;;;25.03;;
12288;SDS011;6207;49.308;7.336;2023-02-11T04:07:31;37.90;;;23.77;;
12288;SDS011;6207;49.308;7.336;2023-02-11T04:09:59;34.70;;;22.30;;
12288;SDS011;6207;49.308;7.336;2023-02-11T04:12:25;33.83;;;22.97;;
12288;SDS011;6207;49.308;7.336;2023-02-11T04:14:52;31.83;;;22.83;;
12288;SDS011;6207;49.308;7.336;2023-02-11T04:17:19;36.53;;;23.40;;
12288;SDS011;6207;49.308;7.336;2023-02-11T04:19:45;32.73;;;22.53;;
12288;SDS011;6207;49.308;7.336;2023-02-11T04:22:12;28.77;;;21.03;;
12288;SDS011;6207;49.308;7.336;2023-02-11T04:24:39;39.03;;;25.33;;
12288;SDS011;6207;49.308;7.336;2023-02-11T04:27:05;37.20;;;22.70;;
12288;SDS011;6207;49.308;7.336;2023-02-11T04:29:32;33.00;;;22.10;;
12288;SDS011;6207;49.308;7.336;2023-02-11T04:31:59;35.03;;;20.40;;
12288;SDS011;6207;49.308;7.336;2023-02-11T04:34:26;35.57;;;23.40;;
12288;SDS011;6207;49.308;7.336;2023-02-11T04:36:53;36.00;;;28.20;;
12288;SDS011;6207;49.308;7.336;2023-02-11T04:39:19;30.90;;;20.40;;
12288;SDS011;6207;49.308;7.336;2023-02-11T04:41:46;28.70;;;19.87;;
12288;SDS011;6207;49.308;7.336;2023-02-11T04:44:13;31.20;;;22.43;;
12288;SDS011;6207;49.308;7.336;2023-02-11T04:46:39;28.10;;;19.33;;
12288;SDS011;6207;49.308;7.336;2023-02-11T04:49:06;37.20;;;22.10;;
12288;SDS011;6207;49.308;7.336;2023-02-11T04:51:33;31.97;;;21.50;;
12288;SDS011;6207;49.308;7.336;2023-02-11T04:53:59;32.00;;;20.77;;
12288;SDS011;6207;49.308;7.336;2023-02-11T04:56:26;29.10;;;19.70;;
12288;SDS011;6207;49.308;7.336;2023-02-11T04:58:52;29.70;;;20.83;;
12288;SDS011;6207;49.308;7.336;2023-02-11T05:01:19;26.90;;;17.33;;
12288;SDS011;6207;49.308;7.336;2023-02-11T05:03:46;32.53;;;23.23;;
12288;SDS011;6207;49.308;7.336;2023-02-11T05:06:13;28.23;;;18.40;;
12288;SDS011;6207;49.308;7.336;2023-02-11T05:08:40;32.93;;;21.40;;
12288;SDS011;6207;49.308;7.336;2023-02-11T05:11:07;22.90;;;17.27;;
12288;SDS011;6207;49.308;7.336;2023-02-11T05:13:39;25.47;;;16.40;;
12288;SDS011;6207;49.308;7.336;2023-02-11T05:16:06;15.50;;;12.83;;
12288;SDS011;6207;49.308;7.336;2023-02-11T05:18:32;28.40;;;18.17;;
12288;SDS011;6207;49.308;7.336;2023-02-11T05:21:04;23.93;;;18.13;;
12288;SDS011;6207;49.308;7.336;2023-02-11T05:23:31;27.33;;;18.63;;
12288;SDS011;6207;49.308;7.336;2023-02-11T05:25:59;25.73;;;16.63;;
12288;SDS011;6207;49.308;7.336;2023-02-11T05:28:26;23.33;;;17.97;;
12288;SDS011;6207;49.308;7.336;2023-02-11T05:30:53;27.93;;;19.57;;
12288;SDS011;6207;49.308;7.336;2023-02-11T05:33:20;25.90;;;18.27;;
12288;SDS011;6207;49.308;7.336;2023-02-11T05:35:47;31.87;;;19.10;;
12288;SDS011;6207;49.308;7.336;2023-02-11T05:38:14;29.23;;;18.93;;
12288;SDS011;6207;49.308;7.336;2023-02-11T05:40:41;27.27;;;18.80;;
12288;SDS011;6207;49.308;7.336;2023-02-11T05:43:08;24.73;;;18.00;;
12288;SDS011;6207;49.308;7.336;2023-02-11T05:45:34;23.43;;;17.40;;
12288;SDS011;6207;49.308;7.336;2023-02-11T05:48:01;29.83;;;20.23;;
12288;SDS011;6207;49.308;7.336;2023-02-11T05:50:28;25.33;;;18.13;;
12288;SDS011;6207;49.308;7.336;2023-02-11T05:52:54;27.53;;;19.93;;
12288;SDS011;6207;49.308;7.336;2023-02-11T05:55:21;26.57;;;18.93;;
12288;SDS011;6207;49.308;7.336;2023-02-11T05:57:48;27.43;;;19.23;;
12288;SDS011;6207;49.308;7.336;2023-02-11T06:00:15;26.37;;;20.50;;
12288;SDS011;6207;49.308;7.336;2023-02-11T06:02:42;26.27;;;20.73;;
12288;SDS011;6207;49.308;7.336;2023-02-11T06:05:08;29.73;;;20.17;;
12288;SDS011;6207;49.308;7.336;2023-02-11T06:07:35;29.63;;;20.97;;
12288;SDS011;6207;49.308;7.336;2023-02-11T06:10:02;28.97;;;20.17;;
12288;SDS011;6207;49.308;7.336;2023-02-11T06:12:29;26.30;;;19.57;;
12288;SDS011;6207;49.308;7.336;2023-02-11T06:14:55;30.43;;;20.33;;
12288;SDS011;6207;49.308;7.336;2023-02-11T06:17:22;28.30;;;20.77;;
12288;SDS011;6207;49.308;7.336;2023-02-11T06:19:50;24.80;;;18.63;;
12288;SDS011;6207;49.308;7.336;2023-02-11T06:22:16;27.23;;;18.90;;
12288;SDS011;6207;49.308;7.336;2023-02-11T06:24:43;24.23;;;18.97;;
12288;SDS011;6207;49.308;7.336;2023-02-11T06:27:25;21.67;;;17.87;;
12288;SDS011;6207;49.308;7.336;2023-02-11T06:29:52;26.80;;;17.77;;
12288;SDS011;6207;49.308;7.336;2023-02-11T06:32:19;22.30;;;16.40;;
12288;SDS011;6207;49.308;7.336;2023-02-11T06:35:06;24.07;;;16.87;;
12288;SDS011;6207;49.308;7.336;2023-02-11T06:37:36;25.57;;;18.67;;
12288;SDS011;6207;49.308;7.336;2023-02-11T06:40:03;26.57;;;17.27;;
12288;SDS011;6207;49.308;7.336;2023-02-11T06:42:30;24.43;;;18.10;;
12288;SDS011;6207;49.308;7.336;2023-02-11T06:44:56;23.37;;;17.43;;
12288;SDS011;6207;49.308;7.336;2023-02-11T06:47:23;25.13;;;18.23;;
12288;SDS011;6207;49.308;7.336;2023-02-11T06:49:50;24.90;;;17.60;;
12288;SDS011;6207;49.308;7.336;2023-02-11T06:52:16;22.40;;;16.03;;
12288;SDS011;6207;49.308;7.336;2023-02-11T06:54:43;18.17;;;14.77;;
12288;SDS011;6207;49.308;7.336;2023-02-11T06:57:10;18.77;;;14.23;;
12288;SDS011;6207;49.308;7.336;2023-02-11T06:59:36;22.77;;;17.97;;
12288;SDS011;6207;49.308;7.336;2023-02-11T07:02:03;22.97;;;16.50;;
12288;SDS011;6207;49.308;7.336;2023-02-11T07:04:30;23.27;;;17.70;;
12288;SDS011;6207;49.308;7.336;2023-02-11T07:06:57;24.30;;;20.07;;
12288;SDS011;6207;49.308;7.336;2023-02-11T07:09:23;24.23;;;19.33;;
12288;SDS011;6207;49.308;7.336;2023-02-11T07:11:50;23.57;;;16.90;;
12288;SDS011;6207;49.308;7.336;2023-02-11T07:14:17;24.27;;;17.63;;
12288;SDS011;6207;49.308;7.336;2023-02-11T07:16:43;22.53;;;16.47;;
12288;SDS011;6207;49.308;7.336;2023-02-11T07:19:10;25.40;;;17.83;;
12288;SDS011;6207;49.308;7.336;2023-02-11T07:21:36;22.87;;;17.87;;
12288;SDS011;6207;49.308;7.336;2023-02-11T07:24:07;23.93;;;18.37;;
12288;SDS011;6207;49.308;7.336;2023-02-11T07:26:36;21.87;;;17.93;;
12288;SDS011;6207;49.308;7.336;2023-02-11T07:29:03;16.53;;;14.83;;
12288;SDS011;6207;49.308;7.336;2023-02-11T07:31:29;24.67;;;18.70;;
12288;SDS011;6207;49.308;7.336;2023-02-11T07:33:57;25.00;;;17.57;;
12288;SDS011;6207;49.308;7.336;2023-02-11T07:36:26;23.30;;;17.27;;
12288;SDS011;6207;49.308;7.336;2023-02-11T07:38:54;26.97;;;17.77;;
12288;SDS011;6207;49.308;7.336;2023-02-11T07:41:21;21.23;;;16.07;;
12288;SDS011;6207;49.308;7.336;2023-02-11T07:43:49;24.37;;;18.60;;
12288;SDS011;6207;49.308;7.336;2023-02-11T07:46:21;26.77;;;19.50;;
12288;SDS011;6207;49.308;7.336;2023-02-11T07:48:50;23.83;;;18.03;;
12288;SDS011;6207;49.308;7.336;2023-02-11T07:51:18;22.83;;;18.70;;
12288;SDS011;6207;49.308;7.336;2023-02-11T07:53:56;22.27;;;18.77;;
12288;SDS011;6207;49.308;7.336;2023-02-11T07:56:24;21.27;;;17.50;;
12288;SDS011;6207;49.308;7.336;2023-02-11T07:58:51;22.80;;;17.90;;
12288;SDS011;6207;49.308;7.336;2023-02-11T08:01:22;27.10;;;18.50;;
12288;SDS011;6207;49.308;7.336;2023-02-11T08:03:52;22.37;;;17.17;;
12288;SDS011;6207;49.308;7.336;2023-02-11T08:06:21;25.23;;;20.43;;
12288;SDS011;6207;49.308;7.336;2023-02-11T08:08:49;25.93;;;17.43;;
12288;SDS011;6207;49.308;7.336;2023-02-11T08:11:17;23.93;;;18.47;;
12288;SDS011;6207;49.308;7.336;2023-02-11T08:13:46;20.33;;;16.80;;
12288;SDS011;6207;49.308;7.336;2023-02-11T08:16:29;21.87;;;17.47;;
12288;SDS011;6207;49.308;7.336;2023-02-11T08:18:59;21.43;;;17.40;;
12288;SDS011;6207;49.308;7.336;2023-02-11T08:21:27;23.80;;;17.40;;
12288;SDS011;6207;49.308;7.336;2023-02-11T08:23:55;24.27;;;19.30;;
12288;SDS011;6207;49.308;7.336;2023-02-11T08:26:23;24.63;;;17.80;;
12288;SDS011;6207;49.308;7.336;2023-02-11T08:28:53;22.97;;;18.30;;
12288;SDS011;6207;49.308;7.336;2023-02-11T08:31:22;22.63;;;18.23;;
12288;SDS011;6207;49.308;7.336;2023-02-11T08:33:52;22.00;;;16.87;;
12288;SDS011;6207;49.308;7.336;2023-02-11T08:36:21;20.10;;;16.23;;
12288;SDS011;6207;49.308;7.336;2023-02-11T08:38:48;23.83;;;17.80;;
12288;SDS011;6207;49.308;7.336;2023-02-11T08:41:15;23.27;;;17.67;;
12288;SDS011;6207;49.308;7.336;2023-02-11T08:43:43;24.60;;;17.90;;
12288;SDS011;6207;49.308;7.336;2023-02-11T08:46:11;19.70;;;16.23;;
12288;SDS011;6207;49.308;7.336;2023-02-11T08:48:39;19.47;;;17.20;;
12288;SDS011;6207;49.308;7.336;2023-02-11T08:51:07;23.60;;;17.40;;
12288;SDS011;6207;49.308;7.336;2023-02-11T08:53:35;24.30;;;18.70;;
12288;SDS011;6207;49.308;7.336;2023-02-11T08:56:02;20.90;;;17.30;;
12288;SDS011;6207;49.308;7.336;2023-02-11T08:58:29;20.87;;;17.53;;
12288;SDS011;6207;49.308;7.336;2023-02-11T09:00:55;21.73;;;18.27;;
12288;SDS011;6207;49.308;7.336;2023-02-11T09:03:22;22.30;;;16.97;;
12288;SDS011;6207;49.308;7.336;2023-02-11T09:05:49;17.07;;;15.27;;
12288;SDS011;6207;49.308;7.336;2023-02-11T09:08:19;22.47;;;17.27;;
12288;SDS011;6207;49.308;7.336;2023-02-11T09:10:46;21.37;;;17.80;;
12288;SDS011;6207;49.308;7.336;2023-02-11T09:13:13;20.70;;;17.57;;
12288;SDS011;6207;49.308;7.336;2023-02-11T09:15:40;20.70;;;18.27;;
12288;SDS011;6207;49.308;7.336;2023-02-11T09:18:11;22.07;;;18.07;;
12288;SDS011;6207;49.308;7.336;2023-02-11T09:20:39;22.10;;;18.37;;
12288;SDS011;6207;49.308;7.336;2023-02-11T09:23:06;20.83;;;18.20;;
12288;SDS011;6207;49.308;7.336;2023-02-11T09:25:33;21.20;;;16.63;;
12288;SDS011;6207;49.308;7.336;2023-02-11T09:28:00;16.07;;;14.27;;
12288;SDS011;6207;49.308;7.336;2023-02-11T09:30:26;18.97;;;15.97;;
12288;SDS011;6207;49.308;7.336;2023-02-11T09:32:53;18.20;;;14.57;;
12288;SDS011;6207;49.308;7.336;2023-02-11T09:35:20;21.50;;;17.10;;
12288;SDS011;6207;49.308;7.336;2023-02-11T09:37:47;20.20;;;16.97;;
12288;SDS011;6207;49.308;7.336;2023-02-11T09:40:14;13.30;;;12.13;;
12288;SDS011;6207;49.308;7.336;2023-02-11T09:45:26;22.83;;;18.17;;
12288;SDS011;6207;49.308;7.336;2023-02-11T09:47:55;22.83;;;18.87;;
12288;SDS011;6207;49.308;7.336;2023-02-11T09:50:41;21.27;;;18.17;;
12288;SDS011;6207;49.308;7.336;2023-02-11T09:53:27;18.40;;;16.40;;
12288;SDS011;6207;49.308;7.336;2023-02-11T09:56:01;23.60;;;19.53;;
12288;SDS011;6207;49.308;7.336;2023-02-11T09:58:37;20.50;;;18.30;;
12288;SDS011;6207;49.308;7.336;2023-02-11T10:03:58;24.23;;;20.73;;
12288;SDS011;6207;49.308;7.336;2023-02-11T10:06:37;22.23;;;19.90;;
12288;SDS011;6207;49.308;7.336;2023-02-11T10:17:48;23.87;;;21.37;;
12288;SDS011;6207;49.308;7.336;2023-02-11T10:20:30;23.40;;;21.10;;
12288;SDS011;6207;49.308;7.336;2023-02-11T10:23:01;24.40;;;22.00;;
12288;SDS011;6207;49.308;7.336;2023-02-11T10:25:53;23.83;;;21.43;;
12288;SDS011;6207;49.308;7.336;2023-02-11T10:28:23;23.97;;;21.43;;
12288;SDS011;6207;49.308;7.336;2023-02-11T10:31:02;24.37;;;21.33;;
12288;SDS011;6207;49.308;7.336;2023-02-11T10:33:49;23.70;;;21.13;;
12288;SDS011;6207;49.308;7.336;2023-02-11T10:36:29;23.47;;;20.97;;
12288;SDS011;6207;49.308;7.336;2023-02-11T10:38:59;20.67;;;18.67;;
12288;SDS011;6207;49.308;7.336;2023-02-11T10:41:35;20.33;;;18.30;;
12288;SDS011;6207;49.308;7.336;2023-02-11T10:44:07;16.63;;;14.87;;
12288;SDS011;6207;49.308;7.336;2023-02-11T10:46:41;21.90;;;19.43;;
12288;SDS011;6207;49.308;7.336;2023-02-11T10:49:08;23.60;;;20.63;;
12288;SDS011;6207;49.308;7.336;2023-02-11T10:51:38;22.73;;;20.30;;
12288;SDS011;6207;49.308;7.336;2023-02-11T10:56:34;22.57;;;20.13;;
12288;SDS011;6207;49.308;7.336;2023-02-11T10:59:06;23.47;;;20.37;;
12288;SDS011;6207;49.308;7.336;2023-02-11T11:01:52;19.93;;;17.93;;
12288;SDS011;6207;49.308;7.336;2023-02-11T11:04:31;22.63;;;19.53;;
12288;SDS011;6207;49.308;7.336;2023-02-11T11:07:09;21.23;;;18.83;;
12288;SDS011;6207;49.308;7.336;2023-02-11T11:09:54;21.67;;;19.37;;
12288;SDS011;6207;49.308;7.336;2023-02-11T11:15:01;22.57;;;20.17;;
12288;SDS011;6207;49.308;7.336;2023-02-11T11:17:42;25.00;;;19.53;;
12288;SDS011;6207;49.308;7.336;2023-02-11T11:20:18;21.67;;;18.80;;
12288;SDS011;6207;49.308;7.336;2023-02-11T11:23:08;24.13;;;20.00;;
12288;SDS011;6207;49.308;7.336;2023-02-11T11:25:42;20.80;;;18.50;;
12288;SDS011;6207;49.308;7.336;2023-02-11T11:28:21;20.87;;;18.80;;
12288;SDS011;6207;49.308;7.336;2023-02-11T11:30:50;21.97;;;19.77;;
12288;SDS011;6207;49.308;7.336;2023-02-11T11:33:26;24.37;;;21.07;;
12288;SDS011;6207;49.308;7.336;2023-02-11T11:35:59;23.40;;;20.27;;
12288;SDS011;6207;49.308;7.336;2023-02-11T11:38:34;24.37;;;19.80;;
12288;SDS011;6207;49.308;7.336;2023-02-11T11:41:15;27.67;;;24.83;;
12288;SDS011;6207;49.308;7.336;2023-02-11T11:44:01;22.33;;;20.10;;
12288;SDS011;6207;49.308;7.336;2023-02-11T11:46:39;21.43;;;18.70;;
12288;SDS011;6207;49.308;7.336;2023-02-11T11:51:54;19.30;;;17.30;;
12288;SDS011;6207;49.308;7.336;2023-02-11T11:54:28;21.23;;;19.00;;
12288;SDS011;6207;49.308;7.336;2023-02-11T11:57:01;22.13;;;19.83;;
12288;SDS011;6207;49.308;7.336;2023-02-11T11:59:37;21.67;;;19.37;;
12288;SDS011;6207;49.308;7.336;2023-02-11T12:05:09;22.10;;;19.13;;
12288;SDS011;6207;49.308;7.336;2023-02-11T12:10:50;21.50;;;18.83;;
12288;SDS011;6207;49.308;7.336;2023-02-11T12:13:31;21.80;;;18.90;;
12288;SDS011;6207;49.308;7.336;2023-02-11T12:24:25;22.17;;;19.33;;
12288;SDS011;6207;49.308;7.336;2023-02-11T12:29:36;23.17;;;19.83;;
12288;SDS011;6207;49.308;7.336;2023-02-11T12:35:55;22.57;;;19.80;;
12288;SDS011;6207;49.308;7.336;2023-02-11T12:38:16;21.67;;;19.53;;
12288;SDS011;6207;49.308;7.336;2023-02-11T12:43:42;18.23;;;16.43;;
12288;SDS011;6207;49.308;7.336;2023-02-11T12:46:17;19.90;;;17.97;;
12288;SDS011;6207;49.308;7.336;2023-02-11T12:51:50;22.27;;;19.93;;
12288;SDS011;6207;49.308;7.336;2023-02-11T12:54:57;23.23;;;20.13;;
12288;SDS011;6207;49.308;7.336;2023-02-11T12:57:30;21.73;;;19.43;;
12288;SDS011;6207;49.308;7.336;2023-02-11T13:02:27;22.73;;;20.33;;
12288;SDS011;6207;49.308;7.336;2023-02-11T13:05:18;24.13;;;21.50;;
12288;SDS011;6207;49.308;7.336;2023-02-11T13:07:53;19.33;;;17.43;;
12288;SDS011;6207;49.308;7.336;2023-02-11T13:10:32;18.43;;;16.10;;
12288;SDS011;6207;49.308;7.336;2023-02-11T13:13:18;24.73;;;20.27;;
12288;SDS011;6207;49.308;7.336;2023-02-11T13:16:04;20.27;;;18.13;;
12288;SDS011;6207;49.308;7.336;2023-02-11T13:28:49;31.03;;;22.57;;
12288;SDS011;6207;49.308;7.336;2023-02-11T13:31:37;21.17;;;18.70;;
12288;SDS011;6207;49.308;7.336;2023-02-11T13:34:08;27.77;;;20.77;;
12288;SDS011;6207;49.308;7.336;2023-02-11T13:37:18;30.47;;;23.93;;
12288;SDS011;6207;49.308;7.336;2023-02-11T13:42:51;25.90;;;20.37;;
12288;SDS011;6207;49.308;7.336;2023-02-11T13:48:25;22.33;;;18.40;;
12288;SDS011;6207;49.308;7.336;2023-02-11T13:50:58;24.30;;;19.97;;
12288;SDS011;6207;49.308;7.336;2023-02-11T13:53:27;28.80;;;20.80;;
12288;SDS011;6207;49.308;7.336;2023-02-11T13:56:05;20.20;;;17.00;;
12288;SDS011;6207;49.308;7.336;2023-02-11T13:58:35;23.57;;;19.53;;
12288;SDS011;6207;49.308;7.336;2023-02-11T14:01:11;25.27;;;19.20;;
12288;SDS011;6207;49.308;7.336;2023-02-11T14:11:00;24.83;;;18.47;;
12288;SDS011;6207;49.308;7.336;2023-02-11T14:16:17;26.33;;;19.53;;
12288;SDS011;6207;49.308;7.336;2023-02-11T14:19:02;28.27;;;20.97;;
12288;SDS011;6207;49.308;7.336;2023-02-11T14:21:36;23.13;;;19.07;;
12288;SDS011;6207;49.308;7.336;2023-02-11T14:26:46;26.37;;;20.63;;
12288;SDS011;6207;49.308;7.336;2023-02-11T14:29:29;27.90;;;20.73;;
12288;SDS011;6207;49.308;7.336;2023-02-11T14:42:53;22.83;;;19.20;;
12288;SDS011;6207;49.308;7.336;2023-02-11T14:45:23;27.33;;;19.87;;
12288;SDS011;6207;49.308;7.336;2023-02-11T14:47:56;26.93;;;20.50;;
12288;SDS011;6207;49.308;7.336;2023-02-11T14:50:33;27.93;;;20.70;;
12288;SDS011;6207;49.308;7.336;2023-02-11T14:53:20;24.20;;;19.73;;
12288;SDS011;6207;49.308;7.336;2023-02-11T14:55:50;24.80;;;19.27;;
12288;SDS011;6207;49.308;7.336;2023-02-11T14:58:19;25.13;;;20.23;;
12288;SDS011;6207;49.308;7.336;2023-02-11T15:00:53;22.83;;;19.87;;
12288;SDS011;6207;49.308;7.336;2023-02-11T15:03:32;21.97;;;19.37;;
12288;SDS011;6207;49.308;7.336;2023-02-11T15:06:11;26.60;;;19.13;;
12288;SDS011;6207;49.308;7.336;2023-02-11T15:08:56;25.40;;;18.87;;
12288;SDS011;6207;49.308;7.336;2023-02-11T15:11:49;22.93;;;19.00;;
12288;SDS011;6207;49.308;7.336;2023-02-11T15:14:27;21.47;;;18.10;;
12288;SDS011;6207;49.308;7.336;2023-02-11T15:16:57;21.50;;;19.00;;
12288;SDS011;6207;49.308;7.336;2023-02-11T15:19:32;26.20;;;19.33;;
12288;SDS011;6207;49.308;7.336;2023-02-11T15:22:04;21.67;;;19.47;;
12288;SDS011;6207;49.308;7.336;2023-02-11T15:24:35;22.40;;;19.03;;
12288;SDS011;6207;49.308;7.336;2023-02-11T15:29:52;25.43;;;19.00;;
12288;SDS011;6207;49.308;7.336;2023-02-11T15:34:49;23.07;;;18.77;;
12288;SDS011;6207;49.308;7.336;2023-02-11T15:39:48;22.93;;;17.47;;
12288;SDS011;6207;49.308;7.336;2023-02-11T15:44:42;23.03;;;18.87;;
12288;SDS011;6207;49.308;7.336;2023-02-11T15:47:10;22.93;;;18.70;;
12288;SDS011;6207;49.308;7.336;2023-02-11T15:49:38;22.88;;;20.27;;
12288;SDS011;6207;49.308;7.336;2023-02-11T15:52:10;24.17;;;18.97;;
12288;SDS011;6207;49.308;7.336;2023-02-11T15:54:39;24.60;;;21.20;;
12288;SDS011;6207;49.308;7.336;2023-02-11T15:57:11;23.50;;;18.80;;
12288;SDS011;6207;49.308;7.336;2023-02-11T15:59:39;21.60;;;18.20;;
12288;SDS011;6207;49.308;7.336;2023-02-11T16:02:18;21.13;;;18.03;;
12288;SDS011;6207;49.308;7.336;2023-02-11T16:04:55;26.50;;;20.17;;
12288;SDS011;6207;49.308;7.336;2023-02-11T16:12:55;33.43;;;23.43;;
12288;SDS011;6207;49.308;7.336;2023-02-11T16:18:32;21.70;;;18.30;;
12288;SDS011;6207;49.308;7.336;2023-02-11T16:21:06;25.87;;;18.33;;
12288;SDS011;6207;49.308;7.336;2023-02-11T16:23:41;24.03;;;18.47;;
12288;SDS011;6207;49.308;7.336;2023-02-11T16:26:28;23.80;;;18.10;;
12288;SDS011;6207;49.308;7.336;2023-02-11T16:29:09;21.87;;;17.97;;
12288;SDS011;6207;49.308;7.336;2023-02-11T16:31:48;21.50;;;17.60;;
12288;SDS011;6207;49.308;7.336;2023-02-11T16:34:21;26.30;;;19.57;;
12288;SDS011;6207;49.308;7.336;2023-02-11T16:36:50;19.50;;;17.40;;
12288;SDS011;6207;49.308;7.336;2023-02-11T16:39:19;23.77;;;18.30;;
12288;SDS011;6207;49.308;7.336;2023-02-11T16:41:55;29.77;;;19.67;;
12288;SDS011;6207;49.308;7.336;2023-02-11T16:44:24;25.37;;;19.27;;
12288;SDS011;6207;49.308;7.336;2023-02-11T16:46:54;23.80;;;18.07;;
12288;SDS011;6207;49.308;7.336;2023-02-11T16:49:39;22.00;;;18.30;;
12288;SDS011;6207;49.308;7.336;2023-02-11T16:52:08;25.90;;;18.50;;
12288;SDS011;6207;49.308;7.336;2023-02-11T16:54:40;23.07;;;18.80;;
12288;SDS011;6207;49.308;7.336;2023-02-11T16:57:18;21.83;;;16.97;;
12288;SDS011;6207;49.308;7.336;2023-02-11T16:59:50;25.27;;;18.77;;
12288;SDS011;6207;49.308;7.336;2023-02-11T17:02:24;22.57;;;18.13;;
12288;SDS011;6207;49.308;7.336;2023-02-11T17:04:53;23.77;;;17.83;;
12288;SDS011;6207;49.308;7.336;2023-02-11T17:07:25;31.60;;;18.07;;
12288;SDS011;6207;49.308;7.336;2023-02-11T17:09:53;24.30;;;17.77;;
12288;SDS011;6207;49.308;7.336;2023-02-11T17:12:21;21.47;;;18.00;;
12288;SDS011;6207;49.308;7.336;2023-02-11T17:14:51;20.53;;;17.63;;
12288;SDS011;6207;49.308;7.336;2023-02-11T17:17:19;28.00;;;18.30;;
12288;SDS011;6207;49.308;7.336;2023-02-11T17:19:51;22.10;;;16.50;;
12288;SDS011;6207;49.308;7.336;2023-02-11T17:22:20;21.93;;;16.90;;
12288;SDS011;6207;49.308;7.336;2023-02-11T17:24:49;20.40;;;16.37;;